sensor_id;sensor_type;location;lat;lon;timestamp;pressure;altitude;pressure_sealevel;temperature;humidity
63035;BME280;59750;53.356;-1.458;2022-10-23T00:00:36;99784.56;;;12.15;100.00
63035;BME280;59750;53.356;-1.458;2022-10-23T00:03:02;99771.38;;;12.15;100.00
63035;BME280;59750;53.356;-1.458;2022-10-23T00:05:29;99771.38;;;12.25;100.00
63035;BME280;59750;53.356;-1.458;2022-10-23T00:07:58;99768.63;;;12.26;100.00
63035;BME280;59750;53.356;-1.458;2022-10-23T00:10:26;99759.03;;;12.25;100.00
63035;BME280;59750;53.356;-1.458;2022-10-23T00:12:53;99764.31;;;12.25;100.00
63035;BME280;59750;53.356;-1.458;2022-10-23T00:15:21;99765.41;;;12.23;100.00
63035;BME280;59750;53.356;-1.458;2022-10-23T00:17:48;99763.88;;;12.30;100.00
63035;BME280;59750;53.356;-1.458;2022-10-23T00:20:15;99770.13;;;12.29;100.00
63035;BME280;59750;53.356;-1.458;2022-10-23T00:22:41;99766.13;;;12.34;100.00
63035;BME280;59750;53.356;-1.458;2022-10-23T00:25:08;99763.63;;;12.33;100.00
63035;BME280;59750;53.356;-1.458;2022-10-23T00:27:35;99754.88;;;12.32;100.00
63035;BME280;59750;53.356;-1.458;2022-10-23T00:30:03;99758.38;;;12.33;100.00
63035;BME280;59750;53.356;-1.458;2022-10-23T00:32:30;99760.03;;;12.34;100.00
63035;BME280;59750;53.356;-1.458;2022-10-23T00:34:56;99761.84;;;12.33;100.00
63035;BME280;59750;53.356;-1.458;2022-10-23T00:37:22;99760.88;;;12.34;100.00
63035;BME280;59750;53.356;-1.458;2022-10-23T00:39:47;99757.50;;;12.32;100.00
63035;BME280;59750;53.356;-1.458;2022-10-23T00:42:16;99760.03;;;12.34;100.00
63035;BME280;59750;53.356;-1.458;2022-10-23T00:47:09;99753.47;;;12.28;100.00
63035;BME280;59750;53.356;-1.458;2022-10-23T00:49:35;99749.88;;;12.29;100.00
63035;BME280;59750;53.356;-1.458;2022-10-23T00:52:04;99748.91;;;12.30;100.00
63035;BME280;59750;53.356;-1.458;2022-10-23T00:54:35;99736.13;;;12.26;100.00
63035;BME280;59750;53.356;-1.458;2022-10-23T00:57:04;99746.81;;;12.24;100.00
63035;BME280;59750;53.356;-1.458;2022-10-23T00:59:33;99739.47;;;12.28;100.00
63035;BME280;59750;53.356;-1.458;2022-10-23T01:01:59;99751.97;;;12.26;100.00
63035;BME280;59750;53.356;-1.458;2022-10-23T01:04:26;99738.63;;;12.27;100.00
63035;BME280;59750;53.356;-1.458;2022-10-23T01:09:43;99735.44;;;12.24;100.00
63035;BME280;59750;53.356;-1.458;2022-10-23T01:12:19;99731.69;;;12.26;100.00
63035;BME280;59750;53.356;-1.458;2022-10-23T01:18:02;99723.09;;;12.24;100.00
63035;BME280;59750;53.356;-1.458;2022-10-23T01:20:45;99728.22;;;12.26;100.00
63035;BME280;59750;53.356;-1.458;2022-10-23T01:34:26;99684.22;;;12.46;100.00
63035;BME280;59750;53.356;-1.458;2022-10-23T01:36:53;99684.22;;;12.46;100.00
63035;BME280;59750;53.356;-1.458;2022-10-23T01:39:26;99679.06;;;12.44;100.00
63035;BME280;59750;53.356;-1.458;2022-10-23T01:41:58;99682.69;;;12.43;100.00
63035;BME280;59750;53.356;-1.458;2022-10-23T01:44:37;99679.50;;;12.40;100.00
63035;BME280;59750;53.356;-1.458;2022-10-23T01:47:08;99681.75;;;12.34;100.00
63035;BME280;59750;53.356;-1.458;2022-10-23T01:49:36;99673.25;;;12.31;100.00
63035;BME280;59750;53.356;-1.458;2022-10-23T01:52:07;99668.41;;;12.26;100.00
63035;BME280;59750;53.356;-1.458;2022-10-23T01:54:37;99665.38;;;12.21;100.00
63035;BME280;59750;53.356;-1.458;2022-10-23T01:57:08;99664.25;;;12.14;100.00
63035;BME280;59750;53.356;-1.458;2022-10-23T01:59:40;99668.72;;;12.14;100.00
63035;BME280;59750;53.356;-1.458;2022-10-23T02:02:10;99671.22;;;12.15;100.00
63035;BME280;59750;53.356;-1.458;2022-10-23T02:04:43;99664.25;;;12.14;100.00
63035;BME280;59750;53.356;-1.458;2022-10-23T02:07:12;99668.28;;;12.18;100.00
63035;BME280;59750;53.356;-1.458;2022-10-23T02:09:39;99663.69;;;12.20;100.00
63035;BME280;59750;53.356;-1.458;2022-10-23T02:12:07;99662.03;;;12.19;100.00
63035;BME280;59750;53.356;-1.458;2022-10-23T02:17:13;99653.84;;;12.22;100.00
63035;BME280;59750;53.356;-1.458;2022-10-23T02:19:44;99658.97;;;12.24;100.00
63035;BME280;59750;53.356;-1.458;2022-10-23T02:24:44;99652.59;;;12.26;100.00
63035;BME280;59750;53.356;-1.458;2022-10-23T02:27:17;99643.97;;;12.24;100.00
63035;BME280;59750;53.356;-1.458;2022-10-23T02:29:52;99642.31;;;12.23;100.00
63035;BME280;59750;53.356;-1.458;2022-10-23T02:32:23;99648.72;;;12.21;100.00
63035;BME280;59750;53.356;-1.458;2022-10-23T02:34:51;99647.19;;;12.18;100.00
63035;BME280;59750;53.356;-1.458;2022-10-23T02:37:17;99646.50;;;12.16;100.00
63035;BME280;59750;53.356;-1.458;2022-10-23T02:39:44;99636.66;;;12.18;100.00
63035;BME280;59750;53.356;-1.458;2022-10-23T02:42:29;99627.19;;;12.25;100.00
63035;BME280;59750;53.356;-1.458;2022-10-23T02:45:10;99625.53;;;12.24;100.00
63035;BME280;59750;53.356;-1.458;2022-10-23T02:50:23;99633.16;;;12.27;100.00
63035;BME280;59750;53.356;-1.458;2022-10-23T02:58:11;99605.13;;;12.36;100.00
63035;BME280;59750;53.356;-1.458;2022-10-23T03:00:44;99607.63;;;12.37;100.00
63035;BME280;59750;53.356;-1.458;2022-10-23T03:03:14;99614.53;;;12.38;100.00
63035;BME280;59750;53.356;-1.458;2022-10-23T03:05:43;99610.94;;;12.40;100.00
63035;BME280;59750;53.356;-1.458;2022-10-23T03:08:11;99600.53;;;12.38;100.00
63035;BME280;59750;53.356;-1.458;2022-10-23T03:10:38;99608.59;;;12.36;100.00
63035;BME280;59750;53.356;-1.458;2022-10-23T03:13:04;99613.19;;;12.34;100.00
63035;BME280;59750;53.356;-1.458;2022-10-23T03:15:30;99605.53;;;12.31;100.00
63035;BME280;59750;53.356;-1.458;2022-10-23T03:17:55;99601.91;;;12.32;100.00
63035;BME280;59750;53.356;-1.458;2022-10-23T03:20:22;99606.25;;;12.33;100.00
63035;BME280;59750;53.356;-1.458;2022-10-23T03:22:47;99600.66;;;12.36;100.00
63035;BME280;59750;53.356;-1.458;2022-10-23T03:25:13;99590.41;;;12.33;100.00
63035;BME280;59750;53.356;-1.458;2022-10-23T03:27:39;99585.00;;;12.35;100.00
63035;BME280;59750;53.356;-1.458;2022-10-23T03:30:05;99592.06;;;12.34;100.00
63035;BME280;59750;53.356;-1.458;2022-10-23T03:32:32;99584.41;;;12.31;100.00
63035;BME280;59750;53.356;-1.458;2022-10-23T03:34:58;99577.78;;;12.27;100.00
63035;BME280;59750;53.356;-1.458;2022-10-23T03:37:24;99571.28;;;12.22;100.00
63035;BME280;59750;53.356;-1.458;2022-10-23T03:39:50;99566.44;;;12.17;100.00
63035;BME280;59750;53.356;-1.458;2022-10-23T03:42:16;99561.75;;;12.11;100.00
63035;BME280;59750;53.356;-1.458;2022-10-23T03:44:42;99558.69;;;12.06;100.00
63035;BME280;59750;53.356;-1.458;2022-10-23T03:47:08;99556.59;;;12.00;100.00
63035;BME280;59750;53.356;-1.458;2022-10-23T03:49:37;99555.22;;;11.96;100.00
63035;BME280;59750;53.356;-1.458;2022-10-23T03:52:04;99561.06;;;11.90;100.00
63035;BME280;59750;53.356;-1.458;2022-10-23T03:54:30;99548.31;;;11.85;100.00
63035;BME280;59750;53.356;-1.458;2022-10-23T03:56:57;99551.50;;;11.89;100.00
63035;BME280;59750;53.356;-1.458;2022-10-23T03:59:23;99543.59;;;11.89;100.00
63035;BME280;59750;53.356;-1.458;2022-10-23T04:01:49;99541.66;;;11.91;100.00
63035;BME280;59750;53.356;-1.458;2022-10-23T04:04:15;99541.94;;;11.88;100.00
63035;BME280;59750;53.356;-1.458;2022-10-23T04:06:40;99544.72;;;11.86;100.00
63035;BME280;59750;53.356;-1.458;2022-10-23T04:09:06;99549.16;;;11.86;100.00
63035;BME280;59750;53.356;-1.458;2022-10-23T04:11:33;99546.66;;;11.84;100.00
63035;BME280;59750;53.356;-1.458;2022-10-23T04:13:58;99551.09;;;11.84;100.00
63035;BME280;59750;53.356;-1.458;2022-10-23T04:16:24;99548.88;;;11.89;100.00
63035;BME280;59750;53.356;-1.458;2022-10-23T04:18:50;99540.00;;;11.90;100.00
63035;BME280;59750;53.356;-1.458;2022-10-23T04:21:16;99542.19;;;11.94;100.00
63035;BME280;59750;53.356;-1.458;2022-10-23T04:23:42;99539.13;;;11.99;100.00
63035;BME280;59750;53.356;-1.458;2022-10-23T04:26:08;99526.63;;;12.01;100.00
63035;BME280;59750;53.356;-1.458;2022-10-23T04:28:34;99513.47;;;12.01;100.00
63035;BME280;59750;53.356;-1.458;2022-10-23T04:30:59;99517.75;;;12.02;100.00
63035;BME280;59750;53.356;-1.458;2022-10-23T04:33:25;99510.81;;;12.01;100.00
63035;BME280;59750;53.356;-1.458;2022-10-23T04:35:51;99511.66;;;12.01;100.00
63035;BME280;59750;53.356;-1.458;2022-10-23T04:38:17;99501.66;;;12.05;100.00
63035;BME280;59750;53.356;-1.458;2022-10-23T04:40:43;99494.47;;;12.07;100.00
63035;BME280;59750;53.356;-1.458;2022-10-23T04:43:09;99493.63;;;12.06;100.00
63035;BME280;59750;53.356;-1.458;2022-10-23T04:45:35;99490.28;;;12.04;100.00
63035;BME280;59750;53.356;-1.458;2022-10-23T04:48:01;99485.16;;;12.03;100.00
63035;BME280;59750;53.356;-1.458;2022-10-23T04:50:26;99480.31;;;12.08;100.00
63035;BME280;59750;53.356;-1.458;2022-10-23T04:52:55;99469.06;;;12.06;100.00
63035;BME280;59750;53.356;-1.458;2022-10-23T04:55:21;99471.72;;;12.06;100.00
63035;BME280;59750;53.356;-1.458;2022-10-23T04:57:50;99464.75;;;12.05;100.00
63035;BME280;59750;53.356;-1.458;2022-10-23T05:00:17;99459.47;;;12.05;100.00
63035;BME280;59750;53.356;-1.458;2022-10-23T05:02:44;99449.78;;;12.05;100.00
63035;BME280;59750;53.356;-1.458;2022-10-23T05:05:10;99452.44;;;12.05;100.00
63035;BME280;59750;53.356;-1.458;2022-10-23T05:07:36;99453.25;;;12.06;100.00
63035;BME280;59750;53.356;-1.458;2022-10-23T05:10:03;99444.38;;;12.07;100.00
63035;BME280;59750;53.356;-1.458;2022-10-23T05:12:29;99445.22;;;12.07;100.00
63035;BME280;59750;53.356;-1.458;2022-10-23T05:14:55;99445.06;;;12.09;100.00
63035;BME280;59750;53.356;-1.458;2022-10-23T05:17:27;99429.78;;;12.13;100.00
63035;BME280;59750;53.356;-1.458;2022-10-23T05:19:56;99425.34;;;12.13;100.00
63035;BME280;59750;53.356;-1.458;2022-10-23T05:22:28;99418.13;;;12.15;100.00
63035;BME280;59750;53.356;-1.458;2022-10-23T05:24:56;99419.78;;;12.16;100.00
63035;BME280;59750;53.356;-1.458;2022-10-23T05:27:22;99410.59;;;12.20;100.00
63035;BME280;59750;53.356;-1.458;2022-10-23T05:29:48;99401.03;;;12.19;100.00
63035;BME280;59750;53.356;-1.458;2022-10-23T05:32:14;99389.66;;;12.19;100.00
63035;BME280;59750;53.356;-1.458;2022-10-23T05:34:41;99393.25;;;12.18;100.00
63035;BME280;59750;53.356;-1.458;2022-10-23T05:37:10;99391.44;;;12.18;100.00
63035;BME280;59750;53.356;-1.458;2022-10-23T05:39:37;99389.78;;;12.17;100.00
63035;BME280;59750;53.356;-1.458;2022-10-23T05:42:03;99376.75;;;12.16;100.00
63035;BME280;59750;53.356;-1.458;2022-10-23T05:44:29;99376.75;;;12.16;100.00
63035;BME280;59750;53.356;-1.458;2022-10-23T05:46:55;99375.25;;;12.13;100.00
63035;BME280;59750;53.356;-1.458;2022-10-23T05:49:24;99393.56;;;12.15;100.00
63035;BME280;59750;53.356;-1.458;2022-10-23T05:51:51;99400.63;;;12.14;100.00
63035;BME280;59750;53.356;-1.458;2022-10-23T05:54:16;99414.78;;;12.13;100.00
63035;BME280;59750;53.356;-1.458;2022-10-23T05:56:42;99422.69;;;12.13;100.00
63035;BME280;59750;53.356;-1.458;2022-10-23T05:59:09;99418.94;;;12.16;100.00
63035;BME280;59750;53.356;-1.458;2022-10-23T06:01:35;99415.78;;;12.12;100.00
63035;BME280;59750;53.356;-1.458;2022-10-23T06:04:02;99406.06;;;12.13;100.00
63035;BME280;59750;53.356;-1.458;2022-10-23T06:06:29;99395.66;;;12.11;100.00
63035;BME280;59750;53.356;-1.458;2022-10-23T06:08:55;99408.16;;;12.09;100.00
63035;BME280;59750;53.356;-1.458;2022-10-23T06:11:20;99406.19;;;12.11;100.00
63035;BME280;59750;53.356;-1.458;2022-10-23T06:13:47;99409.00;;;12.10;100.00
63035;BME280;59750;53.356;-1.458;2022-10-23T06:16:14;99405.66;;;12.07;100.00
63035;BME280;59750;53.356;-1.458;2022-10-23T06:18:40;99408.16;;;12.09;100.00
63035;BME280;59750;53.356;-1.458;2022-10-23T06:21:07;99397.91;;;12.06;100.00
63035;BME280;59750;53.356;-1.458;2022-10-23T06:23:35;99407.75;;;12.04;100.00
63035;BME280;59750;53.356;-1.458;2022-10-23T06:26:02;99398.16;;;12.03;100.00
63035;BME280;59750;53.356;-1.458;2022-10-23T06:28:29;99398.63;;;11.98;100.00
63035;BME280;59750;53.356;-1.458;2022-10-23T06:30:55;99395.16;;;11.98;100.00
63035;BME280;59750;53.356;-1.458;2022-10-23T06:33:20;99404.31;;;11.94;100.00
63035;BME280;59750;53.356;-1.458;2022-10-23T06:35:46;99399.06;;;11.94;100.00
63035;BME280;59750;53.356;-1.458;2022-10-23T06:38:13;99407.94;;;11.93;100.00
63035;BME280;59750;53.356;-1.458;2022-10-23T06:40:38;99414.47;;;11.89;100.00
63035;BME280;59750;53.356;-1.458;2022-10-23T06:43:04;99400.47;;;11.88;100.00
63035;BME280;59750;53.356;-1.458;2022-10-23T06:45:32;99401.59;;;11.86;100.00
63035;BME280;59750;53.356;-1.458;2022-10-23T06:47:59;99401.88;;;11.83;100.00
63035;BME280;59750;53.356;-1.458;2022-10-23T06:50:26;99407.69;;;11.76;100.00
63035;BME280;59750;53.356;-1.458;2022-10-23T06:52:55;99418.97;;;11.79;100.00
63035;BME280;59750;53.356;-1.458;2022-10-23T06:55:21;99426.94;;;11.77;100.00
63035;BME280;59750;53.356;-1.458;2022-10-23T06:57:47;99433.03;;;11.77;100.00
63035;BME280;59750;53.356;-1.458;2022-10-23T07:00:13;99431.38;;;11.76;100.00
63035;BME280;59750;53.356;-1.458;2022-10-23T07:02:40;99424.75;;;11.72;100.00
63035;BME280;59750;53.356;-1.458;2022-10-23T07:05:06;99432.66;;;11.72;100.00
63035;BME280;59750;53.356;-1.458;2022-10-23T07:07:32;99427.38;;;11.72;100.00
63035;BME280;59750;53.356;-1.458;2022-10-23T07:09:58;99418.50;;;11.73;100.00
63035;BME280;59750;53.356;-1.458;2022-10-23T07:12:24;99406.44;;;11.71;100.00
63035;BME280;59750;53.356;-1.458;2022-10-23T07:14:50;99398.53;;;11.71;100.00
63035;BME280;59750;53.356;-1.458;2022-10-23T07:17:16;99385.38;;;11.71;100.00
63035;BME280;59750;53.356;-1.458;2022-10-23T07:19:43;99383.03;;;11.68;100.00
63035;BME280;59750;53.356;-1.458;2022-10-23T07:22:09;99384.16;;;11.65;100.00
63035;BME280;59750;53.356;-1.458;2022-10-23T07:24:35;99393.84;;;11.65;100.00
63035;BME280;59750;53.356;-1.458;2022-10-23T07:27:03;99377.22;;;11.64;100.00
63035;BME280;59750;53.356;-1.458;2022-10-23T07:29:29;99377.22;;;11.64;100.00
63035;BME280;59750;53.356;-1.458;2022-10-23T07:31:56;99367.50;;;11.65;100.00
63035;BME280;59750;53.356;-1.458;2022-10-23T07:34:23;99372.78;;;11.65;100.00
63035;BME280;59750;53.356;-1.458;2022-10-23T07:36:49;99365.03;;;11.63;100.00
63035;BME280;59750;53.356;-1.458;2022-10-23T07:39:15;99352.69;;;11.64;100.00
63035;BME280;59750;53.356;-1.458;2022-10-23T07:41:43;99352.84;;;11.62;100.00
63035;BME280;59750;53.356;-1.458;2022-10-23T07:44:09;99347.56;;;11.62;100.00
63035;BME280;59750;53.356;-1.458;2022-10-23T07:46:35;99341.47;;;11.62;100.00
63035;BME280;59750;53.356;-1.458;2022-10-23T07:49:01;99340.63;;;11.61;100.00
63035;BME280;59750;53.356;-1.458;2022-10-23T07:51:26;99334.53;;;11.61;100.00
63035;BME280;59750;53.356;-1.458;2022-10-23T07:53:52;99333.72;;;11.60;100.00
63035;BME280;59750;53.356;-1.458;2022-10-23T07:56:23;99332.88;;;11.60;100.00
63035;BME280;59750;53.356;-1.458;2022-10-23T07:58:51;99318.88;;;11.59;100.00
63035;BME280;59750;53.356;-1.458;2022-10-23T08:01:38;99304.06;;;11.58;100.00
63035;BME280;59750;53.356;-1.458;2022-10-23T08:04:08;99307.38;;;11.60;100.00
63035;BME280;59750;53.356;-1.458;2022-10-23T08:06:33;99306.53;;;11.60;100.00
63035;BME280;59750;53.356;-1.458;2022-10-23T08:09:00;99302.09;;;11.60;100.00
63035;BME280;59750;53.356;-1.458;2022-10-23T08:11:26;99296.00;;;11.60;100.00
63035;BME280;59750;53.356;-1.458;2022-10-23T08:13:57;99300.31;;;11.61;100.00
63035;BME280;59750;53.356;-1.458;2022-10-23T08:16:24;99295.88;;;11.61;100.00
63035;BME280;59750;53.356;-1.458;2022-10-23T08:18:50;99299.19;;;11.63;100.00
63035;BME280;59750;53.356;-1.458;2022-10-23T08:21:16;99293.91;;;11.63;100.00
63035;BME280;59750;53.356;-1.458;2022-10-23T08:23:43;99289.03;;;11.68;100.00
63035;BME280;59750;53.356;-1.458;2022-10-23T08:26:10;99295.28;;;11.67;100.00
63035;BME280;59750;53.356;-1.458;2022-10-23T08:28:36;99297.22;;;11.65;100.00
63035;BME280;59750;53.356;-1.458;2022-10-23T08:31:09;99289.31;;;11.65;100.00
63035;BME280;59750;53.356;-1.458;2022-10-23T08:33:36;99288.50;;;11.65;100.00
63035;BME280;59750;53.356;-1.458;2022-10-23T08:36:03;99281.56;;;11.64;100.00
63035;BME280;59750;53.356;-1.458;2022-10-23T08:38:29;99283.22;;;11.65;100.00
63035;BME280;59750;53.356;-1.458;2022-10-23T08:40:55;99285.72;;;11.66;100.00
63035;BME280;59750;53.356;-1.458;2022-10-23T08:43:35;99280.44;;;11.66;100.00
63035;BME280;59750;53.356;-1.458;2022-10-23T08:46:07;99279.47;;;11.67;100.00
63035;BME280;59750;53.356;-1.458;2022-10-23T08:48:37;99276.84;;;11.67;100.00
63035;BME280;59750;53.356;-1.458;2022-10-23T08:51:12;99276.84;;;11.67;100.00
63035;BME280;59750;53.356;-1.458;2022-10-23T08:53:51;99269.59;;;11.69;100.00
63035;BME280;59750;53.356;-1.458;2022-10-23T08:56:30;99268.63;;;11.70;100.00
63035;BME280;59750;53.356;-1.458;2022-10-23T08:59:03;99259.91;;;11.70;100.00
63035;BME280;59750;53.356;-1.458;2022-10-23T09:04:03;99248.38;;;11.71;100.00
63035;BME280;59750;53.356;-1.458;2022-10-23T09:06:35;99243.13;;;11.71;100.00
63035;BME280;59750;53.356;-1.458;2022-10-23T09:17:29;99217.00;;;11.77;100.00
63035;BME280;59750;53.356;-1.458;2022-10-23T09:22:46;99209.69;;;11.81;100.00
63035;BME280;59750;53.356;-1.458;2022-10-23T09:25:23;99204.28;;;11.83;100.00
63035;BME280;59750;53.356;-1.458;2022-10-23T09:27:53;99186.81;;;11.82;100.00
63035;BME280;59750;53.356;-1.458;2022-10-23T09:30:33;99185.81;;;11.83;100.00
63035;BME280;59750;53.356;-1.458;2022-10-23T09:33:15;99173.63;;;11.82;100.00
63035;BME280;59750;53.356;-1.458;2022-10-23T09:36:04;99174.47;;;11.82;100.00
63035;BME280;59750;53.356;-1.458;2022-10-23T09:38:35;99162.78;;;11.85;100.00
63035;BME280;59750;53.356;-1.458;2022-10-23T09:41:24;99144.19;;;11.86;100.00
63035;BME280;59750;53.356;-1.458;2022-10-23T09:44:20;99150.97;;;11.89;100.00
63035;BME280;59750;53.356;-1.458;2022-10-23T09:46:50;99134.19;;;11.90;100.00
63035;BME280;59750;53.356;-1.458;2022-10-23T09:49:20;99144.09;;;11.96;100.00
63035;BME280;59750;53.356;-1.458;2022-10-23T09:54:17;99122.81;;;11.89;100.00
63035;BME280;59750;53.356;-1.458;2022-10-23T09:56:47;99126.28;;;11.90;100.00
63035;BME280;59750;53.356;-1.458;2022-10-23T10:02:00;99098.09;;;11.90;100.00
63035;BME280;59750;53.356;-1.458;2022-10-23T10:04:38;99082.00;;;11.93;100.00
63035;BME280;59750;53.356;-1.458;2022-10-23T10:07:19;99074.91;;;11.94;100.00
63035;BME280;59750;53.356;-1.458;2022-10-23T10:09:45;99072.28;;;11.94;100.00
63035;BME280;59750;53.356;-1.458;2022-10-23T10:17:32;99044.94;;;11.95;100.00
63035;BME280;59750;53.356;-1.458;2022-10-23T10:25:49;99027.84;;;11.99;100.00
63035;BME280;59750;53.356;-1.458;2022-10-23T10:31:08;99020.59;;;12.01;100.00
63035;BME280;59750;53.356;-1.458;2022-10-23T10:34:00;99017.53;;;12.05;100.00
63035;BME280;59750;53.356;-1.458;2022-10-23T10:36:51;99034.28;;;12.04;100.00
63035;BME280;59750;53.356;-1.458;2022-10-23T10:44:44;99026.63;;;12.11;100.00
63035;BME280;59750;53.356;-1.458;2022-10-23T10:47:18;99016.38;;;12.08;100.00
63035;BME280;59750;53.356;-1.458;2022-10-23T10:50:02;99013.59;;;12.10;100.00
63035;BME280;59750;53.356;-1.458;2022-10-23T10:55:42;99036.19;;;12.12;100.00
63035;BME280;59750;53.356;-1.458;2022-10-23T11:00:43;99009.97;;;12.11;100.00
63035;BME280;59750;53.356;-1.458;2022-10-23T11:05:58;99017.25;;;12.17;100.00
63035;BME280;59750;53.356;-1.458;2022-10-23T11:08:44;99008.53;;;12.16;100.00
63035;BME280;59750;53.356;-1.458;2022-10-23T11:13:39;99001.28;;;12.18;100.00
63035;BME280;59750;53.356;-1.458;2022-10-23T11:16:14;98997.97;;;12.16;100.00
63035;BME280;59750;53.356;-1.458;2022-10-23T11:18:45;98988.09;;;12.18;100.00
63035;BME280;59750;53.356;-1.458;2022-10-23T11:26:14;98967.72;;;12.28;100.00
63035;BME280;59750;53.356;-1.458;2022-10-23T11:32:02;98967.75;;;12.36;100.00
63035;BME280;59750;53.356;-1.458;2022-10-23T11:37:32;98955.28;;;12.55;100.00
63035;BME280;59750;53.356;-1.458;2022-10-23T11:45:30;98926.00;;;12.66;100.00
63035;BME280;59750;53.356;-1.458;2022-10-23T11:48:00;98925.66;;;12.69;100.00
63035;BME280;59750;53.356;-1.458;2022-10-23T11:50:30;98906.53;;;12.75;100.00
63035;BME280;59750;53.356;-1.458;2022-10-23T11:53:02;98900.28;;;12.76;100.00
63035;BME280;59750;53.356;-1.458;2022-10-23T11:55:32;98893.69;;;12.80;100.00
63035;BME280;59750;53.356;-1.458;2022-10-23T11:58:20;98877.69;;;12.82;100.00
63035;BME280;59750;53.356;-1.458;2022-10-23T12:00:57;98879.50;;;12.81;100.00
63035;BME280;59750;53.356;-1.458;2022-10-23T12:03:30;98854.28;;;12.79;100.00
63035;BME280;59750;53.356;-1.458;2022-10-23T12:06:02;98855.25;;;12.78;100.00
63035;BME280;59750;53.356;-1.458;2022-10-23T12:08:32;98844.53;;;12.79;100.00
63035;BME280;59750;53.356;-1.458;2022-10-23T12:10:59;98861.03;;;12.81;100.00
63035;BME280;59750;53.356;-1.458;2022-10-23T12:13:44;98867.13;;;12.82;100.00
63035;BME280;59750;53.356;-1.458;2022-10-23T12:16:11;98855.59;;;12.83;100.00
63035;BME280;59750;53.356;-1.458;2022-10-23T12:18:56;98829.84;;;12.85;100.00
63035;BME280;59750;53.356;-1.458;2022-10-23T12:21:23;98826.75;;;12.89;100.00
63035;BME280;59750;53.356;-1.458;2022-10-23T12:24:15;98813.06;;;12.94;100.00
63035;BME280;59750;53.356;-1.458;2022-10-23T12:26:52;98819.66;;;12.98;100.00
63035;BME280;59750;53.356;-1.458;2022-10-23T12:29:36;98812.88;;;13.04;100.00
63035;BME280;59750;53.356;-1.458;2022-10-23T12:39:37;98808.88;;;13.40;100.00
63035;BME280;59750;53.356;-1.458;2022-10-23T12:42:16;98810.00;;;13.54;100.00
63035;BME280;59750;53.356;-1.458;2022-10-23T12:44:45;98793.47;;;13.60;100.00
63035;BME280;59750;53.356;-1.458;2022-10-23T12:47:22;98803.69;;;13.71;100.00
63035;BME280;59750;53.356;-1.458;2022-10-23T12:49:49;98801.53;;;13.75;100.00
63035;BME280;59750;53.356;-1.458;2022-10-23T12:52:19;98797.06;;;13.75;100.00
63035;BME280;59750;53.356;-1.458;2022-10-23T12:54:46;98803.84;;;13.70;100.00
63035;BME280;59750;53.356;-1.458;2022-10-23T12:57:40;98802.69;;;13.72;100.00
63035;BME280;59750;53.356;-1.458;2022-10-23T13:00:08;98800.53;;;13.76;100.00
63035;BME280;59750;53.356;-1.458;2022-10-23T13:02:35;98796.25;;;13.75;100.00
63035;BME280;59750;53.356;-1.458;2022-10-23T13:05:05;98804.00;;;13.68;100.00
63035;BME280;59750;53.356;-1.458;2022-10-23T13:07:37;98800.22;;;13.71;100.00
63035;BME280;59750;53.356;-1.458;2022-10-23T13:10:17;98786.00;;;13.72;100.00
63035;BME280;59750;53.356;-1.458;2022-10-23T13:12:52;98792.59;;;13.76;100.00
63035;BME280;59750;53.356;-1.458;2022-10-23T13:15:21;98791.59;;;13.77;100.00
63035;BME280;59750;53.356;-1.458;2022-10-23T13:20:21;98780.50;;;13.81;100.00
63035;BME280;59750;53.356;-1.458;2022-10-23T13:22:55;98790.25;;;13.81;100.00
63035;BME280;59750;53.356;-1.458;2022-10-23T13:25:28;98782.84;;;13.76;100.00
63035;BME280;59750;53.356;-1.458;2022-10-23T13:28:21;98775.09;;;13.75;100.00
63035;BME280;59750;53.356;-1.458;2022-10-23T13:33:37;98784.38;;;13.71;100.00
63035;BME280;59750;53.356;-1.458;2022-10-23T13:38:43;98770.47;;;13.69;100.00
63035;BME280;59750;53.356;-1.458;2022-10-23T13:41:14;98762.91;;;13.66;100.00
63035;BME280;59750;53.356;-1.458;2022-10-23T13:43:42;98764.25;;;13.61;100.00
63035;BME280;59750;53.356;-1.458;2022-10-23T13:46:18;98763.94;;;13.56;100.00
63035;BME280;59750;53.356;-1.458;2022-10-23T13:48:46;98762.94;;;13.57;100.00
63035;BME280;59750;53.356;-1.458;2022-10-23T13:53:42;98753.31;;;13.65;100.00
63035;BME280;59750;53.356;-1.458;2022-10-23T13:56:11;98744.03;;;13.77;100.00
63035;BME280;59750;53.356;-1.458;2022-10-23T13:58:38;98747.63;;;13.84;100.00
63035;BME280;59750;53.356;-1.458;2022-10-23T14:01:05;98740.00;;;13.89;100.00
63035;BME280;59750;53.356;-1.458;2022-10-23T14:03:31;98733.34;;;13.93;100.00
63035;BME280;59750;53.356;-1.458;2022-10-23T14:05:57;98726.03;;;14.03;100.00
63035;BME280;59750;53.356;-1.458;2022-10-23T14:08:25;98722.41;;;14.04;100.00
63035;BME280;59750;53.356;-1.458;2022-10-23T14:10:51;98715.81;;;14.00;100.00
63035;BME280;59750;53.356;-1.458;2022-10-23T14:13:18;98715.84;;;13.92;100.00
63035;BME280;59750;53.356;-1.458;2022-10-23T14:15:52;98710.09;;;13.88;100.00
63035;BME280;59750;53.356;-1.458;2022-10-23T14:18:19;98713.09;;;13.85;100.00
63035;BME280;59750;53.356;-1.458;2022-10-23T14:20:46;98714.25;;;13.83;100.00
63035;BME280;59750;53.356;-1.458;2022-10-23T14:23:12;98705.34;;;13.84;100.00
63035;BME280;59750;53.356;-1.458;2022-10-23T14:25:39;98707.34;;;13.82;100.00
63035;BME280;59750;53.356;-1.458;2022-10-23T14:28:05;98703.03;;;13.81;100.00
63035;BME280;59750;53.356;-1.458;2022-10-23T14:30:35;98696.66;;;13.75;100.00
63035;BME280;59750;53.356;-1.458;2022-10-23T14:33:02;98699.00;;;13.70;100.00
63035;BME280;59750;53.356;-1.458;2022-10-23T14:35:28;98693.84;;;13.69;100.00
63035;BME280;59750;53.356;-1.458;2022-10-23T14:37:54;98686.28;;;13.66;100.00
63035;BME280;59750;53.356;-1.458;2022-10-23T14:40:20;98686.28;;;13.66;100.00
63035;BME280;59750;53.356;-1.458;2022-10-23T14:42:46;98686.28;;;13.66;100.00
63035;BME280;59750;53.356;-1.458;2022-10-23T14:45:13;98687.91;;;13.67;100.00
63035;BME280;59750;53.356;-1.458;2022-10-23T14:47:39;98680.97;;;13.66;100.00